Time;durP1;ratioP1;P1;durP2;ratioP2;P2;SDS_P1;SDS_P2;PMS_P1;PMS_P2;Temp;Humidity;BMP_temperature;BMP_pressure;BME280_temperature;BME280_humidity;BME280_pressure;Samples;Min_cycle;Max_cycle;Signal;HPM_P1;HPM_P2
2022/12/10 00:01:15;;;;;;;;;;;-0.80;99.90;;;;;;5043572;28;19925;-72
2022/12/10 00:03:41;;;;;;;;;;;-0.80;99.90;;;;;;5028274;28;20301;-73
2022/12/10 00:06:08;;;;;;;;;;;-0.80;99.90;;;;;;5011261;28;20024;-72
2022/12/10 00:08:34;;;;;;;;;;;-0.80;99.90;;;;;;5027558;28;19933;-71
2022/12/10 00:11:02;;;;;;;;;;;-0.90;99.90;;;;;;5029043;28;20372;-73
2022/12/10 00:13:27;;;;;;;;;;;-0.80;99.90;;;;;;5013365;28;19926;-71
2022/12/10 00:15:53;;;;;;;;;;;-0.50;99.90;;;;;;5021416;28;19934;-72
2022/12/10 00:18:18;;;;;;;;;;;-0.90;99.90;;;;;;5005005;28;19930;-71
2022/12/10 00:20:44;;;;;;;;;;;-0.90;99.90;;;;;;5004569;28;19933;-71
2022/12/10 00:23:10;;;;;;;;;;;-0.90;99.90;;;;;;4988498;28;19926;-71
2022/12/10 00:25:35;;;;;;;;;;;-0.90;99.90;;;;;;4989308;28;19926;-72
2022/12/10 00:28:01;;;;;;;;;;;-0.40;99.90;;;;;;4972266;28;19926;-72
2022/12/10 00:30:26;;;;;;;;;;;-1.00;99.90;;;;;;5021471;28;20271;-73
2022/12/10 00:32:52;;;;;;;;;;;-0.90;99.90;;;;;;4988007;28;19926;-72
2022/12/10 00:35:18;;;;;;;;;;;-0.90;99.90;;;;;;5004548;28;19948;-72
2022/12/10 00:37:43;;;;;;;;;;;-0.90;99.90;;;;;;5007966;28;19991;-74
2022/12/10 00:40:10;;;;;;;;;;;-0.90;99.90;;;;;;4992891;28;19933;-73
2022/12/10 00:42:36;;;;;;;;;;;-1.00;99.90;;;;;;5023913;28;19996;-71
2022/12/10 00:45:01;;;;;;;;;;;-1.00;99.90;;;;;;5024292;28;19925;-72
2022/12/10 00:47:27;;;;;;;;;;;-1.00;99.90;;;;;;5024577;28;19932;-73
2022/12/10 00:49:53;;;;;;;;;;;-1.00;99.90;;;;;;5024336;28;19926;-72
2022/12/10 00:52:18;;;;;;;;;;;-1.00;99.90;;;;;;4991224;28;19930;-73
2022/12/10 00:54:44;;;;;;;;;;;-1.00;99.90;;;;;;4991084;28;20028;-72
2022/12/10 00:57:09;;;;;;;;;;;-1.00;99.90;;;;;;5007902;28;19977;-73
2022/12/10 00:59:35;;;;;;;;;;;-1.00;99.90;;;;;;4991239;28;19991;-71
2022/12/10 01:02:01;;;;;;;;;;;-1.00;99.90;;;;;;5007695;28;19996;-72
2022/12/10 01:04:26;;;;;;;;;;;-1.00;99.90;;;;;;5008024;28;19926;-73
2022/12/10 01:06:53;;;;;;;;;;;-1.00;99.90;;;;;;5007658;28;20135;-72
2022/12/10 01:09:20;;;;;;;;;;;-0.60;99.90;;;;;;5024290;28;19930;-73
2022/12/10 01:11:46;;;;;;;;;;;-1.00;99.90;;;;;;5023633;28;19937;-72
2022/12/10 01:14:13;;;;;;;;;;;-1.00;99.90;;;;;;5034534;27;19940;-72
2022/12/10 01:16:39;;;;;;;;;;;-1.00;99.90;;;;;;5007633;28;19925;-72
2022/12/10 01:19:05;;;;;;;;;;;-1.00;99.90;;;;;;5007999;28;20286;-72
2022/12/10 01:21:31;;;;;;;;;;;-1.00;99.90;;;;;;5024092;28;19930;-72
2022/12/10 01:23:57;;;;;;;;;;;-1.10;99.90;;;;;;5007523;28;20325;-72
2022/12/10 01:26:27;;;;;;;;;;;-0.80;99.90;;;;;;5024339;28;19929;-72
2022/12/10 01:28:53;;;;;;;;;;;-1.00;99.90;;;;;;5023897;28;20290;-73
2022/12/10 01:31:22;;;;;;;;;;;-1.10;99.90;;;;;;5024143;28;20029;-72
2022/12/10 01:33:49;;;;;;;;;;;-1.10;99.90;;;;;;4990704;28;19929;-72
2022/12/10 01:36:22;;;;;;;;;;;-1.10;99.90;;;;;;5023878;28;20020;-72
2022/12/10 01:38:48;;;;;;;;;;;-1.10;99.90;;;;;;5022815;28;20117;-72
2022/12/10 01:41:18;;;;;;;;;;;-1.10;99.90;;;;;;4990844;28;19922;-73
2022/12/10 01:44:04;;;;;;;;;;;-1.10;99.90;;;;;;5006939;28;19970;-72
2022/12/10 01:46:37;;;;;;;;;;;-1.10;99.90;;;;;;5022890;28;19926;-73
2022/12/10 01:49:04;;;;;;;;;;;-1.20;99.90;;;;;;5023456;28;19925;-72
2022/12/10 01:51:31;;;;;;;;;;;-1.20;99.90;;;;;;4974796;28;19933;-72
2022/12/10 01:53:57;;;;;;;;;;;-1.20;99.90;;;;;;4991484;28;19926;-73
2022/12/10 01:56:23;;;;;;;;;;;-0.70;99.90;;;;;;4974194;28;20043;-72
2022/12/10 01:58:50;;;;;;;;;;;-1.10;99.90;;;;;;5023238;28;19988;-73
2022/12/10 02:01:28;;;;;;;;;;;-1.10;99.90;;;;;;5022913;28;19974;-73
2022/12/10 02:04:04;;;;;;;;;;;-1.20;99.90;;;;;;5023256;28;20279;-72
2022/12/10 02:06:30;;;;;;;;;;;-1.20;99.90;;;;;;4991893;28;19926;-73
2022/12/10 02:09:05;;;;;;;;;;;-1.20;99.90;;;;;;5006579;28;19926;-73
2022/12/10 02:11:49;;;;;;;;;;;-1.20;99.90;;;;;;4990373;28;19933;-72
2022/12/10 02:14:21;;;;;;;;;;;-1.20;99.90;;;;;;5006269;28;20324;-72
2022/12/10 02:16:51;;;;;;;;;;;-1.20;99.90;;;;;;4991339;28;19926;-72
2022/12/10 02:19:24;;;;;;;;;;;-1.20;99.90;;;;;;5023400;28;19933;-72
2022/12/10 02:21:50;;;;;;;;;;;-1.20;99.90;;;;;;4991071;28;20382;-72
2022/12/10 02:24:19;;;;;;;;;;;-1.20;99.90;;;;;;4990266;28;20150;-72
2022/12/10 02:26:54;;;;;;;;;;;-1.20;99.90;;;;;;4973864;28;19930;-71
2022/12/10 02:29:24;;;;;;;;;;;-1.20;99.90;;;;;;5023189;28;19926;-72
2022/12/10 02:31:52;;;;;;;;;;;-1.20;99.90;;;;;;4989696;28;20272;-70
2022/12/10 02:34:19;;;;;;;;;;;-1.20;99.90;;;;;;5022976;28;19949;-71
2022/12/10 02:36:47;;;;;;;;;;;-1.20;99.90;;;;;;4990223;28;19926;-72
2022/12/10 02:39:15;;;;;;;;;;;-1.20;99.90;;;;;;5006434;28;20321;-71
2022/12/10 02:41:43;;;;;;;;;;;-0.90;99.90;;;;;;5005809;28;19945;-73
2022/12/10 02:44:11;;;;;;;;;;;-1.20;99.90;;;;;;5022550;28;19933;-72
2022/12/10 02:46:38;;;;;;;;;;;-0.90;99.90;;;;;;5022572;28;19925;-72
2022/12/10 02:49:05;;;;;;;;;;;-1.10;99.90;;;;;;4990664;28;20029;-72
2022/12/10 02:51:31;;;;;;;;;;;-1.10;99.90;;;;;;4990827;28;19926;-72
2022/12/10 02:54:00;;;;;;;;;;;-1.10;99.90;;;;;;5022593;28;19925;-73
2022/12/10 02:56:32;;;;;;;;;;;-1.10;99.90;;;;;;5022527;28;19926;-73
2022/12/10 02:59:04;;;;;;;;;;;-1.10;99.90;;;;;;5021600;28;19952;-73
2022/12/10 03:01:39;;;;;;;;;;;-1.10;99.90;;;;;;5022231;28;20325;-72
2022/12/10 03:04:08;;;;;;;;;;;-1.10;99.90;;;;;;4990624;28;20397;-74
2022/12/10 03:06:37;;;;;;;;;;;-0.50;99.90;;;;;;4990366;28;19929;-74
2022/12/10 03:09:05;;;;;;;;;;;-1.00;99.90;;;;;;5022057;28;20372;-72
2022/12/10 03:11:31;;;;;;;;;;;-1.00;99.90;;;;;;5022678;28;19933;-73
2022/12/10 03:13:59;;;;;;;;;;;-1.10;99.90;;;;;;5015250;28;19926;-73
2022/12/10 03:16:28;;;;;;;;;;;-1.10;99.90;;;;;;5028903;28;19933;-72
2022/12/10 03:18:56;;;;;;;;;;;-1.10;99.90;;;;;;5044894;28;19925;-72
2022/12/10 03:21:22;;;;;;;;;;;-1.10;99.90;;;;;;5045532;28;19925;-73
2022/12/10 03:23:48;;;;;;;;;;;-1.10;99.90;;;;;;5029879;28;20069;-72
2022/12/10 03:26:14;;;;;;;;;;;-0.50;99.90;;;;;;5044553;28;20327;-71
2022/12/10 03:28:42;;;;;;;;;;;-1.20;99.90;;;;;;5012374;28;19929;-72
2022/12/10 03:31:08;;;;;;;;;;;-1.10;99.90;;;;;;5029346;28;19950;-72
2022/12/10 03:33:34;;;;;;;;;;;-1.20;99.90;;;;;;5012297;28;19974;-73
2022/12/10 03:36:00;;;;;;;;;;;-1.10;99.90;;;;;;5027716;28;20290;-72
2022/12/10 03:38:25;;;;;;;;;;;-1.30;99.90;;;;;;5029469;28;19925;-73
2022/12/10 03:40:51;;;;;;;;;;;-1.30;99.90;;;;;;5044979;28;19932;-73
2022/12/10 03:43:17;;;;;;;;;;;-1.30;99.90;;;;;;5011396;28;19931;-72
2022/12/10 03:45:42;;;;;;;;;;;-1.30;99.90;;;;;;5029363;28;19978;-73
2022/12/10 03:48:08;;;;;;;;;;;-1.40;99.90;;;;;;5028129;28;20024;-72
2022/12/10 03:50:33;;;;;;;;;;;-1.30;99.90;;;;;;5044926;28;19925;-72
2022/12/10 03:52:59;;;;;;;;;;;-1.40;99.90;;;;;;5044434;28;20454;-72
2022/12/10 03:55:24;;;;;;;;;;;-1.40;99.90;;;;;;5061562;28;20298;-74
2022/12/10 03:57:50;;;;;;;;;;;-1.40;99.90;;;;;;5028271;28;19926;-72
2022/12/10 04:00:16;;;;;;;;;;;-1.40;99.90;;;;;;5028818;28;20382;-73
2022/12/10 04:02:41;;;;;;;;;;;-1.40;99.90;;;;;;5011578;28;20037;-72
2022/12/10 04:05:07;;;;;;;;;;;-1.40;99.90;;;;;;5028031;28;20016;-73
2022/12/10 04:07:33;;;;;;;;;;;-1.40;99.90;;;;;;5027838;28;20290;-72
2022/12/10 04:09:59;;;;;;;;;;;-1.40;99.90;;;;;;5045599;28;20274;-72
2022/12/10 04:12:25;;;;;;;;;;;-1.40;99.90;;;;;;5030967;28;19932;-72
2022/12/10 04:17:35;;;;;;;;;;;-1.30;99.90;;;;;;5062573;28;19972;-72
2022/12/10 04:20:00;;;;;;;;;;;-1.20;99.90;;;;;;5048455;28;20406;-72
2022/12/10 04:27:55;;;;;;;;;;;-0.60;99.90;;;;;;5048398;28;19932;-72
2022/12/10 04:30:21;;;;;;;;;;;-1.40;99.90;;;;;;5030692;28;19925;-72
2022/12/10 04:32:46;;;;;;;;;;;-1.40;99.90;;;;;;5015139;28;19986;-72
2022/12/10 04:35:12;;;;;;;;;;;-1.10;99.90;;;;;;5047581;28;19933;-71
2022/12/10 04:37:37;;;;;;;;;;;-1.10;99.90;;;;;;5032370;28;20113;-72
2022/12/10 04:40:03;;;;;;;;;;;-1.40;99.90;;;;;;5047744;28;19972;-73
2022/12/10 04:42:29;;;;;;;;;;;-1.40;99.90;;;;;;5030201;28;19925;-73
2022/12/10 04:44:55;;;;;;;;;;;-1.40;99.90;;;;;;5032172;28;19925;-73
2022/12/10 04:47:20;;;;;;;;;;;-1.30;99.90;;;;;;5047356;28;19925;-71
2022/12/10 04:49:46;;;;;;;;;;;-1.40;99.90;;;;;;5032089;28;20046;-72
2022/12/10 04:52:12;;;;;;;;;;;-1.40;99.90;;;;;;5046927;28;20016;-72
2022/12/10 04:54:38;;;;;;;;;;;-1.40;99.90;;;;;;5031129;28;19937;-73
2022/12/10 04:57:04;;;;;;;;;;;-1.50;99.90;;;;;;5047623;28;19925;-71
2022/12/10 04:59:29;;;;;;;;;;;-1.40;99.90;;;;;;5046946;28;19925;-72
2022/12/10 05:01:55;;;;;;;;;;;-1.40;99.90;;;;;;5030691;28;20402;-73
2022/12/10 05:04:20;;;;;;;;;;;-1.40;99.90;;;;;;5014306;28;19925;-72
2022/12/10 05:06:48;;;;;;;;;;;-1.40;99.90;;;;;;5047578;28;20016;-72
2022/12/10 05:09:13;;;;;;;;;;;-1.30;99.90;;;;;;5031593;28;19933;-72
2022/12/10 05:11:39;;;;;;;;;;;-1.30;99.90;;;;;;5063637;28;20022;-72
2022/12/10 05:14:04;;;;;;;;;;;-1.30;99.90;;;;;;5030186;28;20421;-72
2022/12/10 05:16:32;;;;;;;;;;;-1.30;99.90;;;;;;5063509;28;19926;-72
2022/12/10 05:18:57;;;;;;;;;;;-1.20;99.90;;;;;;5030711;28;20324;-73
2022/12/10 05:21:24;;;;;;;;;;;-1.30;99.90;;;;;;5030383;28;20062;-73
2022/12/10 05:23:51;;;;;;;;;;;-1.20;99.90;;;;;;4997905;28;19964;-72
2022/12/10 05:26:18;;;;;;;;;;;-1.20;99.90;;;;;;5013744;28;19931;-71
2022/12/10 05:28:45;;;;;;;;;;;-1.20;99.90;;;;;;5046872;28;19925;-72
2022/12/10 05:31:15;;;;;;;;;;;-1.30;99.90;;;;;;5030546;28;19925;-72
2022/12/10 05:33:42;;;;;;;;;;;-1.30;99.90;;;;;;5013954;28;20317;-71
2022/12/10 05:36:09;;;;;;;;;;;-1.30;99.90;;;;;;5047099;28;20504;-73
2022/12/10 05:38:35;;;;;;;;;;;-1.40;99.90;;;;;;5030265;28;19974;-72
2022/12/10 05:41:05;;;;;;;;;;;-1.10;99.90;;;;;;5046616;28;19925;-73
2022/12/10 05:43:30;;;;;;;;;;;-1.40;99.90;;;;;;5029787;28;19925;-72
2022/12/10 05:46:00;;;;;;;;;;;-1.40;99.90;;;;;;5046439;28;19931;-73
2022/12/10 05:48:26;;;;;;;;;;;-1.40;99.90;;;;;;5030928;28;19925;-73
2022/12/10 05:50:51;;;;;;;;;;;-1.40;99.90;;;;;;5046606;28;20351;-72
2022/12/10 05:53:17;;;;;;;;;;;-1.40;99.90;;;;;;5030684;28;19932;-72
2022/12/10 05:55:43;;;;;;;;;;;-1.10;99.90;;;;;;5046446;28;20011;-72
2022/12/10 05:58:09;;;;;;;;;;;-1.50;99.90;;;;;;5030157;28;20020;-73
2022/12/10 06:00:35;;;;;;;;;;;-1.50;99.90;;;;;;5029349;28;19925;-71
2022/12/10 06:03:00;;;;;;;;;;;-1.50;99.90;;;;;;5046083;28;20393;-73
2022/12/10 06:05:26;;;;;;;;;;;-1.50;99.90;;;;;;5045833;27;19933;-73
2022/12/10 06:07:51;;;;;;;;;;;-1.40;99.90;;;;;;5029874;28;20012;-72
2022/12/10 06:10:17;;;;;;;;;;;-1.40;99.90;;;;;;5030652;28;19925;-74
2022/12/10 06:12:43;;;;;;;;;;;-1.40;99.90;;;;;;5045646;28;19925;-72
2022/12/10 06:15:08;;;;;;;;;;;-1.40;99.90;;;;;;5041271;28;20272;-72
2022/12/10 06:17:36;;;;;;;;;;;-1.50;99.90;;;;;;5005820;28;19971;-73
2022/12/10 06:20:01;;;;;;;;;;;-1.50;99.90;;;;;;5023116;28;20386;-73
2022/12/10 06:22:27;;;;;;;;;;;-0.90;99.90;;;;;;5022487;28;20014;-72
2022/12/10 06:24:52;;;;;;;;;;;-1.40;99.90;;;;;;5006509;28;19932;-73
2022/12/10 06:27:18;;;;;;;;;;;-1.40;99.90;;;;;;5023066;28;19976;-73
2022/12/10 06:29:44;;;;;;;;;;;-1.10;99.90;;;;;;4990859;28;20016;-72
2022/12/10 06:32:09;;;;;;;;;;;-1.40;99.90;;;;;;4991111;28;19930;-72
2022/12/10 06:34:35;;;;;;;;;;;-1.40;99.90;;;;;;5021161;28;19925;-72
2022/12/10 06:37:00;;;;;;;;;;;-1.30;99.90;;;;;;4989821;28;19972;-72
2022/12/10 06:39:26;;;;;;;;;;;-1.40;99.90;;;;;;5022432;28;20443;-71
2022/12/10 06:41:52;;;;;;;;;;;-1.40;99.90;;;;;;5006056;28;19990;-72
2022/12/10 06:44:17;;;;;;;;;;;-1.50;99.90;;;;;;5022890;28;19930;-72
2022/12/10 06:46:43;;;;;;;;;;;-1.50;99.90;;;;;;4988583;28;20507;-72
2022/12/10 06:49:08;;;;;;;;;;;-1.50;99.90;;;;;;4973513;28;19926;-72
2022/12/10 06:51:34;;;;;;;;;;;-1.50;99.90;;;;;;4989095;28;19926;-72
2022/12/10 06:53:59;;;;;;;;;;;-1.50;99.90;;;;;;5006013;28;19984;-72
2022/12/10 06:56:25;;;;;;;;;;;-1.50;99.90;;;;;;5005810;28;19932;-70
2022/12/10 06:58:51;;;;;;;;;;;-1.50;99.90;;;;;;5022438;28;20322;-73
2022/12/10 07:01:21;;;;;;;;;;;-1.50;99.90;;;;;;4989406;28;19926;-72
2022/12/10 07:03:48;;;;;;;;;;;-1.50;99.90;;;;;;5021617;28;19926;-72
2022/12/10 07:06:13;;;;;;;;;;;-1.50;99.90;;;;;;5022409;28;20339;-73
2022/12/10 07:08:39;;;;;;;;;;;-1.10;99.90;;;;;;4990160;28;19999;-72
2022/12/10 07:11:06;;;;;;;;;;;-1.50;99.90;;;;;;4956788;28;19925;-73
2022/12/10 07:13:31;;;;;;;;;;;-1.50;99.90;;;;;;4988585;28;20410;-72
2022/12/10 07:15:57;;;;;;;;;;;-1.50;99.90;;;;;;5005480;28;19926;-73
2022/12/10 07:18:22;;;;;;;;;;;-1.50;99.90;;;;;;4990323;28;20036;-73
2022/12/10 07:20:48;;;;;;;;;;;-1.50;99.90;;;;;;5005088;28;19937;-72
2022/12/10 07:23:14;;;;;;;;;;;-1.50;99.90;;;;;;4989128;28;20024;-73
2022/12/10 07:25:39;;;;;;;;;;;-1.60;99.90;;;;;;4987990;28;19930;-73
2022/12/10 07:28:05;;;;;;;;;;;-1.60;99.90;;;;;;5021955;28;20003;-73
2022/12/10 07:30:31;;;;;;;;;;;-1.50;99.90;;;;;;5021833;28;19933;-72
2022/12/10 07:32:57;;;;;;;;;;;-1.60;99.90;;;;;;5021587;28;19934;-73
2022/12/10 07:35:22;;;;;;;;;;;-1.60;99.90;;;;;;5021749;28;19926;-72
2022/12/10 07:37:48;;;;;;;;;;;-0.70;99.90;;;;;;5005045;28;19930;-73
2022/12/10 07:40:13;;;;;;;;;;;-1.60;99.90;;;;;;4988778;28;20348;-73
2022/12/10 07:42:39;;;;;;;;;;;-1.60;99.90;;;;;;4972019;28;19937;-73
2022/12/10 07:45:05;;;;;;;;;;;-1.60;99.90;;;;;;4987899;28;19969;-73
2022/12/10 07:47:30;;;;;;;;;;;-1.60;99.90;;;;;;4988637;28;19948;-73
2022/12/10 07:49:56;;;;;;;;;;;-1.60;99.90;;;;;;5021292;28;20020;-73
2022/12/10 07:52:22;;;;;;;;;;;-1.60;99.90;;;;;;5021298;28;19933;-72
2022/12/10 07:54:47;;;;;;;;;;;-1.60;99.90;;;;;;5021054;28;19975;-73
2022/12/10 07:57:14;;;;;;;;;;;-1.60;99.90;;;;;;5005044;28;19925;-72
2022/12/10 07:59:39;;;;;;;;;;;-1.60;99.90;;;;;;4988180;28;19976;-74
2022/12/10 08:02:05;;;;;;;;;;;-1.60;99.90;;;;;;5021504;28;19984;-72
2022/12/10 08:04:30;;;;;;;;;;;-1.60;99.90;;;;;;5021350;28;19926;-74
2022/12/10 08:06:56;;;;;;;;;;;-1.70;99.90;;;;;;4971975;28;19921;-73
2022/12/10 08:09:22;;;;;;;;;;;-1.00;99.90;;;;;;5004818;28;19933;-73
2022/12/10 08:11:48;;;;;;;;;;;-1.60;99.90;;;;;;5004925;28;20126;-74
2022/12/10 08:14:13;;;;;;;;;;;-1.70;99.90;;;;;;4977630;28;19937;-72
2022/12/10 08:16:39;;;;;;;;;;;-1.80;99.90;;;;;;5044077;28;19973;-72
2022/12/10 08:19:05;;;;;;;;;;;-1.80;99.90;;;;;;5011406;28;19925;-78
2022/12/10 08:21:40;;;;;;;;;;;-1.60;99.90;;;;;;5048071;28;19925;-84
2022/12/10 08:24:16;;;;;;;;;;;-1.80;99.90;;;;;;5016806;28;20387;-79
2022/12/10 08:26:43;;;;;;;;;;;-1.80;99.90;;;;;;5037313;28;19946;-77
2022/12/10 08:29:13;;;;;;;;;;;-1.80;99.90;;;;;;5017750;28;19932;-80
2022/12/10 08:31:39;;;;;;;;;;;-1.90;99.90;;;;;;5032132;28;19931;-80
2022/12/10 08:34:12;;;;;;;;;;;-1.80;99.90;;;;;;4997477;28;19921;-80
2022/12/10 08:36:38;;;;;;;;;;;-1.80;99.90;;;;;;5048881;28;19936;-81
2022/12/10 08:39:03;;;;;;;;;;;-1.80;99.90;;;;;;5029212;28;19925;-79
2022/12/10 08:41:29;;;;;;;;;;;-1.80;99.90;;;;;;5028647;28;19929;-80
2022/12/10 08:43:55;;;;;;;;;;;-1.80;99.90;;;;;;5028935;28;20303;-80
2022/12/10 08:46:20;;;;;;;;;;;-1.80;99.90;;;;;;5027961;28;20400;-80
2022/12/10 08:48:46;;;;;;;;;;;-1.70;99.90;;;;;;5045107;28;19931;-81
2022/12/10 08:51:14;;;;;;;;;;;-1.70;99.90;;;;;;5028548;28;19925;-84
2022/12/10 08:53:40;;;;;;;;;;;-1.70;99.90;;;;;;4998119;28;20328;-80
2022/12/10 08:56:05;;;;;;;;;;;-1.70;99.90;;;;;;5029922;28;19981;-76
2022/12/10 08:58:31;;;;;;;;;;;-1.70;99.90;;;;;;5033145;28;19926;-80
2022/12/10 09:00:57;;;;;;;;;;;-1.70;99.90;;;;;;5047691;28;19925;-81
2022/12/10 09:03:23;;;;;;;;;;;-1.70;99.90;;;;;;5048013;28;19933;-82
2022/12/10 09:05:49;;;;;;;;;;;-1.70;99.90;;;;;;5032105;28;20320;-82
2022/12/10 09:08:14;;;;;;;;;;;-1.70;99.90;;;;;;5031372;28;19929;-82
2022/12/10 09:10:40;;;;;;;;;;;-1.70;99.90;;;;;;5031373;28;19980;-81
2022/12/10 09:13:06;;;;;;;;;;;-1.70;99.90;;;;;;5048835;28;20410;-77
2022/12/10 09:15:32;;;;;;;;;;;-1.80;99.90;;;;;;5031327;27;20020;-82
2022/12/10 09:17:57;;;;;;;;;;;-1.80;99.90;;;;;;4977073;28;20287;-82
2022/12/10 09:20:23;;;;;;;;;;;-1.80;99.90;;;;;;4961052;28;20339;-83
2022/12/10 09:22:49;;;;;;;;;;;-1.80;99.90;;;;;;5008697;28;19929;-76
2022/12/10 09:25:16;;;;;;;;;;;-1.80;99.90;;;;;;5009534;28;20009;-81
2022/12/10 09:27:42;;;;;;;;;;;-1.90;99.90;;;;;;5007801;28;20338;-81
2022/12/10 09:30:08;;;;;;;;;;;-1.80;99.90;;;;;;4992767;28;20034;-81
2022/12/10 09:32:34;;;;;;;;;;;-1.90;99.90;;;;;;5007995;28;20329;-72
2022/12/10 09:34:59;;;;;;;;;;;-1.80;99.90;;;;;;5023748;28;19951;-76
2022/12/10 09:37:25;;;;;;;;;;;-1.70;99.90;;;;;;4992115;28;19977;-77
2022/12/10 09:39:51;;;;;;;;;;;-1.70;99.90;;;;;;5023463;28;20063;-75
2022/12/10 09:42:27;;;;;;;;;;;-1.70;99.90;;;;;;5023699;28;19925;-76
2022/12/10 09:45:05;;;;;;;;;;;-1.70;99.90;;;;;;5006958;28;20017;-75
2022/12/10 09:47:36;;;;;;;;;;;-1.70;99.90;;;;;;5023556;28;20051;-76
2022/12/10 09:50:16;;;;;;;;;;;-1.60;99.90;;;;;;4974282;28;19938;-76
2022/12/10 09:52:43;;;;;;;;;;;-1.60;99.90;;;;;;5023926;28;20379;-76
2022/12/10 09:55:13;;;;;;;;;;;-1.60;99.90;;;;;;5007293;28;19926;-75
2022/12/10 09:57:41;;;;;;;;;;;-1.60;99.90;;;;;;5023500;28;19951;-76
2022/12/10 10:00:27;;;;;;;;;;;-1.60;99.90;;;;;;5023066;28;19933;-76
2022/12/10 10:02:55;;;;;;;;;;;-1.50;99.90;;;;;;5019616;28;19933;-76
2022/12/10 10:05:22;;;;;;;;;;;-1.50;99.90;;;;;;5007054;28;20279;-76
2022/12/10 10:07:50;;;;;;;;;;;-1.50;99.90;;;;;;5006329;28;19937;-83
2022/12/10 10:10:21;;;;;;;;;;;-1.40;99.90;;;;;;4990615;28;19926;-76
2022/12/10 10:12:47;;;;;;;;;;;-1.40;99.90;;;;;;5023257;28;19969;-75
2022/12/10 10:15:14;;;;;;;;;;;-1.40;99.90;;;;;;5005927;28;20014;-73
2022/12/10 10:17:45;;;;;;;;;;;-1.40;99.90;;;;;;4991089;28;19987;-75
2022/12/10 10:20:12;;;;;;;;;;;-1.30;99.90;;;;;;5022695;28;19926;-75
2022/12/10 10:22:38;;;;;;;;;;;-1.30;99.90;;;;;;5022964;28;20017;-74
2022/12/10 10:25:05;;;;;;;;;;;-0.50;99.90;;;;;;5005913;28;19925;-76
2022/12/10 10:27:32;;;;;;;;;;;-1.30;99.90;;;;;;4990755;28;20012;-74
2022/12/10 10:30:00;;;;;;;;;;;-1.30;99.90;;;;;;5006251;28;19972;-73
2022/12/10 10:32:29;;;;;;;;;;;-1.30;99.90;;;;;;5022717;28;20337;-73
2022/12/10 10:34:57;;;;;;;;;;;-1.10;99.90;;;;;;5006746;28;20069;-74
2022/12/10 10:37:35;;;;;;;;;;;-1.20;99.90;;;;;;5022817;28;19973;-75
2022/12/10 10:40:00;;;;;;;;;;;-1.20;99.90;;;;;;5006044;28;19926;-73
2022/12/10 10:42:44;;;;;;;;;;;-1.20;99.90;;;;;;5005647;28;19933;-73
2022/12/10 10:45:29;;;;;;;;;;;-1.20;99.90;;;;;;4990824;28;20432;-76
2022/12/10 10:48:07;;;;;;;;;;;-1.10;99.90;;;;;;5005881;28;20016;-74
2022/12/10 10:50:37;;;;;;;;;;;-1.10;99.90;;;;;;5006238;28;19933;-74
2022/12/10 10:53:19;;;;;;;;;;;-0.90;99.90;;;;;;5022369;28;20024;-75
2022/12/10 10:55:45;;;;;;;;;;;-1.00;99.90;;;;;;5022867;28;19969;-74
2022/12/10 10:58:17;;;;;;;;;;;-1.00;99.90;;;;;;5022231;28;20311;-75
2022/12/10 11:00:52;;;;;;;;;;;-1.00;99.90;;;;;;5006196;28;19934;-73
2022/12/10 11:03:18;;;;;;;;;;;-1.00;99.90;;;;;;5005215;28;19929;-74
2022/12/10 11:05:46;;;;;;;;;;;-0.30;99.90;;;;;;5006057;28;20001;-75
2022/12/10 11:08:15;;;;;;;;;;;-0.90;99.90;;;;;;5022033;28;19930;-74
2022/12/10 11:10:49;;;;;;;;;;;-0.80;99.90;;;;;;5022239;28;19925;-75
2022/12/10 11:13:25;;;;;;;;;;;-0.90;99.90;;;;;;5018880;28;20020;-76
2022/12/10 11:16:10;;;;;;;;;;;-0.80;99.90;;;;;;5021535;27;20295;-75
2022/12/10 11:18:38;;;;;;;;;;;-0.80;99.90;;;;;;5021983;28;20044;-75
2022/12/10 11:21:06;;;;;;;;;;;-0.70;99.90;;;;;;5005156;28;19932;-75
2022/12/10 11:23:37;;;;;;;;;;;-0.70;99.90;;;;;;5005878;28;19925;-75
2022/12/10 11:26:09;;;;;;;;;;;-0.70;99.90;;;;;;5022253;28;20267;-74
2022/12/10 11:29:07;;;;;;;;;;;-0.70;99.90;;;;;;5021143;28;19930;-74
2022/12/10 11:31:39;;;;;;;;;;;-0.60;99.90;;;;;;5049118;28;19948;-74
2022/12/10 11:34:17;;;;;;;;;;;-0.60;99.90;;;;;;5021493;28;19926;-74
2022/12/10 11:36:46;;;;;;;;;;;-0.60;99.90;;;;;;5021969;28;20076;-71
2022/12/10 11:39:14;;;;;;;;;;;-0.70;99.90;;;;;;5021356;28;19996;-71
2022/12/10 11:41:48;;;;;;;;;;;-0.70;99.90;;;;;;4989907;28;19933;-72
2022/12/10 11:44:22;;;;;;;;;;;-0.70;99.90;;;;;;5020507;28;19993;-71
2022/12/10 11:46:57;;;;;;;;;;;-0.70;99.90;;;;;;5020930;28;19983;-71
2022/12/10 11:49:29;;;;;;;;;;;-0.80;99.90;;;;;;5021172;28;19976;-71
2022/12/10 11:52:10;;;;;;;;;;;-0.80;99.90;;;;;;5021713;28;19956;-70
2022/12/10 11:55:14;;;;;;;;;;;-0.80;99.90;;;;;;5004965;28;19926;-72
2022/12/10 11:57:39;;;;;;;;;;;-0.80;99.90;;;;;;5003270;28;19956;-70
2022/12/10 12:00:05;;;;;;;;;;;-0.50;99.90;;;;;;4970225;28;20012;-72
2022/12/10 12:02:38;;;;;;;;;;;-0.70;99.90;;;;;;4976134;28;19926;-70
2022/12/10 12:05:07;;;;;;;;;;;-0.80;99.90;;;;;;5004754;28;19961;-70
2022/12/10 12:07:39;;;;;;;;;;;-0.80;99.90;;;;;;5019958;28;19926;-71
2022/12/10 12:10:17;;;;;;;;;;;-0.80;99.90;;;;;;4987663;28;20314;-69
2022/12/10 12:12:46;;;;;;;;;;;-0.80;99.90;;;;;;5020840;28;20393;-69
2022/12/10 12:15:15;;;;;;;;;;;-0.90;99.90;;;;;;4986439;28;19977;-69
2022/12/10 12:17:43;;;;;;;;;;;-0.90;99.90;;;;;;4987868;28;19926;-69
2022/12/10 12:20:17;;;;;;;;;;;-0.90;99.90;;;;;;4989136;28;19921;-70
2022/12/10 12:22:46;;;;;;;;;;;-0.80;99.90;;;;;;4988259;28;19926;-71
2022/12/10 12:25:17;;;;;;;;;;;-0.80;99.90;;;;;;5019100;28;19976;-71
2022/12/10 12:27:45;;;;;;;;;;;-0.30;99.90;;;;;;5020029;28;19991;-71
2022/12/10 12:30:15;;;;;;;;;;;-0.80;99.90;;;;;;5020399;28;20438;-71
2022/12/10 12:32:56;;;;;;;;;;;-0.80;99.90;;;;;;5024214;28;19955;-70
2022/12/10 12:35:42;;;;;;;;;;;-0.80;99.90;;;;;;5020288;28;20012;-71
2022/12/10 12:38:23;;;;;;;;;;;-0.80;99.90;;;;;;4992047;28;19929;-70
2022/12/10 12:40:53;;;;;;;;;;;-0.70;99.90;;;;;;5005081;28;20020;-71
2022/12/10 12:43:25;;;;;;;;;;;-0.70;99.90;;;;;;5023050;28;19980;-70
2022/12/10 12:45:55;;;;;;;;;;;-0.60;99.90;;;;;;5023790;28;19975;-70
2022/12/10 12:48:28;;;;;;;;;;;-0.60;99.90;;;;;;4985296;28;20076;-72
2022/12/10 12:50:55;;;;;;;;;;;-0.60;99.90;;;;;;4990558;28;19926;-70
2022/12/10 12:53:22;;;;;;;;;;;-0.50;99.90;;;;;;5004644;28;19926;-72
2022/12/10 12:56:06;;;;;;;;;;;-0.50;99.90;;;;;;4989171;28;19943;-70
2022/12/10 12:58:46;;;;;;;;;;;-0.50;99.90;;;;;;5020804;28;19926;-69
2022/12/10 13:01:32;;;;;;;;;;;-0.50;99.90;;;;;;4988860;28;19929;-68
2022/12/10 13:03:58;;;;;;;;;;;-0.50;99.90;;;;;;5006472;28;19991;-68
2022/12/10 13:06:25;;;;;;;;;;;-0.60;99.90;;;;;;5023727;28;19926;-68
2022/12/10 13:09:10;;;;;;;;;;;-0.60;99.90;;;;;;5024026;28;19926;-70
2022/12/10 13:11:36;;;;;;;;;;;-0.60;99.90;;;;;;4991499;28;19933;-72
2022/12/10 13:14:01;;;;;;;;;;;-0.60;99.90;;;;;;5009188;28;19926;-73
2022/12/10 13:16:45;;;;;;;;;;;-0.60;99.90;;;;;;5046697;28;19929;-71
2022/12/10 13:19:20;;;;;;;;;;;-0.60;99.90;;;;;;5046961;28;19925;-73
2022/12/10 13:22:01;;;;;;;;;;;-0.60;99.90;;;;;;5046957;28;19925;-72
2022/12/10 13:24:44;;;;;;;;;;;-0.60;99.90;;;;;;5046011;28;19932;-73
2022/12/10 13:27:10;;;;;;;;;;;-0.60;99.90;;;;;;5031325;28;19968;-73
2022/12/10 13:29:48;;;;;;;;;;;-0.50;99.90;;;;;;5029850;28;20025;-73
2022/12/10 13:32:18;;;;;;;;;;;-0.50;99.90;;;;;;5030479;28;20350;-73
2022/12/10 13:34:44;;;;;;;;;;;-0.50;99.90;;;;;;5030874;28;19951;-73
2022/12/10 13:37:13;;;;;;;;;;;-0.50;99.90;;;;;;5013826;28;19926;-73
2022/12/10 13:39:52;;;;;;;;;;;-0.50;99.90;;;;;;5030841;28;19933;-73
2022/12/10 13:45:02;;;;;;;;;;;-0.50;99.90;;;;;;5046787;28;19925;-73
2022/12/10 13:47:36;;;;;;;;;;;-0.50;99.90;;;;;;5031156;28;20368;-72
2022/12/10 13:50:25;;;;;;;;;;;-0.50;99.90;;;;;;5030225;28;19926;-73
2022/12/10 13:53:10;;;;;;;;;;;-0.50;99.90;;;;;;5042072;28;19932;-73
2022/12/10 13:55:45;;;;;;;;;;;-0.50;99.90;;;;;;5046316;28;19925;-73
2022/12/10 13:58:14;;;;;;;;;;;-0.50;99.90;;;;;;5046364;28;19974;-74
2022/12/10 14:00:56;;;;;;;;;;;-0.40;99.90;;;;;;5046273;28;20028;-73
2022/12/10 14:03:44;;;;;;;;;;;-0.40;99.90;;;;;;5046144;28;19925;-73
2022/12/10 14:06:21;;;;;;;;;;;-0.40;99.90;;;;;;5034355;28;19925;-75
2022/12/10 14:08:55;;;;;;;;;;;-0.40;99.90;;;;;;5030023;28;19967;-75
2022/12/10 14:11:22;;;;;;;;;;;-0.40;99.90;;;;;;5047235;28;20014;-72
2022/12/10 14:13:51;;;;;;;;;;;-0.40;99.90;;;;;;5030166;28;19925;-73
2022/12/10 14:16:18;;;;;;;;;;;-0.40;99.90;;;;;;5046632;28;19925;-73
2022/12/10 14:18:48;;;;;;;;;;;-0.40;99.90;;;;;;5013135;28;20275;-73
2022/12/10 14:21:14;;;;;;;;;;;-0.40;99.90;;;;;;5046216;28;19932;-73
2022/12/10 14:23:44;;;;;;;;;;;-0.40;99.90;;;;;;5062635;28;19925;-73
2022/12/10 14:26:15;;;;;;;;;;;-0.40;99.90;;;;;;5031175;28;19931;-73
2022/12/10 14:28:41;;;;;;;;;;;-0.40;99.90;;;;;;5030185;28;20314;-72
2022/12/10 14:31:12;;;;;;;;;;;-0.40;99.90;;;;;;5029407;28;19932;-73
2022/12/10 14:33:37;;;;;;;;;;;-0.40;99.90;;;;;;5029102;28;20326;-73
2022/12/10 14:36:03;;;;;;;;;;;-0.40;99.90;;;;;;5030342;28;19932;-73